createdAt,value
2018-07-20T00:00:59.197Z,25.40
2018-07-20T00:03:26.675Z,25.40
2018-07-20T00:05:54.143Z,25.30
2018-07-20T00:08:21.682Z,25.40
2018-07-20T00:10:49.239Z,25.30
2018-07-20T00:13:16.716Z,25.30
2018-07-20T00:15:44.194Z,25.20
2018-07-20T00:20:46.188Z,25.20
2018-07-20T00:23:13.694Z,25.20
2018-07-20T00:25:41.186Z,25.10
2018-07-20T00:28:08.730Z,25.10
2018-07-20T00:30:36.196Z,25.10
2018-07-20T00:33:03.723Z,25.00
2018-07-20T00:35:31.154Z,25.00
2018-07-20T00:37:58.628Z,24.90
2018-07-20T00:40:26.122Z,24.50
2018-07-20T00:42:53.600Z,24.90
2018-07-20T00:47:48.474Z,24.80
2018-07-20T00:50:15.940Z,24.80
2018-07-20T00:52:43.350Z,24.80
2018-07-20T00:55:10.841Z,24.70
2018-07-20T01:00:12.458Z,24.70
2018-07-20T01:05:07.412Z,24.60
2018-07-20T01:07:34.822Z,24.60
2018-07-20T01:14:57.151Z,24.50
2018-07-20T01:17:24.574Z,24.50
2018-07-20T01:19:52.089Z,24.50
2018-07-20T01:22:19.568Z,24.40
2018-07-20T01:24:47.045Z,24.40
2018-07-20T01:27:14.471Z,24.40
2018-07-20T01:32:09.901Z,24.30
2018-07-20T01:37:05.663Z,24.30
2018-07-20T01:39:33.161Z,24.10
2018-07-20T01:42:00.649Z,24.20
2018-07-20T01:49:23.021Z,24.10
2018-07-20T01:54:17.819Z,24.00
2018-07-20T01:59:12.656Z,23.90
2018-07-20T02:01:40.105Z,23.90
2018-07-20T02:04:07.571Z,23.70
2018-07-20T02:06:35.023Z,23.80
2018-07-20T02:09:02.559Z,23.80
2018-07-20T02:13:57.427Z,23.70
2018-07-20T02:16:24.885Z,23.90
2018-07-20T02:18:52.341Z,23.70
2018-07-20T02:21:19.805Z,23.70
2018-07-20T02:23:47.270Z,23.60
2018-07-20T02:26:14.726Z,23.60
2018-07-20T02:28:42.163Z,23.60
2018-07-20T02:31:09.600Z,23.60
2018-07-20T02:33:37.062Z,23.50
2018-07-20T02:36:04.787Z,23.50
2018-07-20T02:38:32.239Z,23.50
2018-07-20T02:40:59.747Z,23.50
2018-07-20T02:43:27.214Z,23.40
2018-07-20T02:45:54.677Z,23.40
2018-07-20T02:48:22.129Z,23.40
2018-07-20T02:50:49.610Z,23.40
2018-07-20T02:55:44.458Z,23.30
2018-07-20T02:58:12.009Z,23.30
2018-07-20T03:00:39.499Z,23.30
2018-07-20T03:03:06.964Z,23.30
2018-07-20T03:05:34.436Z,23.20
2018-07-20T03:08:01.906Z,23.20
2018-07-20T03:10:29.351Z,23.20
2018-07-20T03:12:57.468Z,23.20
2018-07-20T03:15:24.936Z,23.20
2018-07-20T03:17:52.414Z,23.10
2018-07-20T03:20:19.872Z,23.10
2018-07-20T03:22:47.317Z,23.10
2018-07-20T03:25:14.756Z,23.00
2018-07-20T03:27:42.232Z,23.10
2018-07-20T03:30:09.698Z,23.00
2018-07-20T03:32:37.219Z,23.00
2018-07-20T03:35:04.866Z,23.00
2018-07-20T03:37:32.318Z,23.00
2018-07-20T03:42:34.191Z,23.00
2018-07-20T03:47:29.810Z,22.90
2018-07-20T03:52:24.734Z,22.90
2018-07-20T03:57:19.663Z,22.90
2018-07-20T03:59:47.115Z,22.90
2018-07-20T04:02:14.573Z,22.80
2018-07-20T04:04:42.010Z,22.80
2018-07-20T04:07:09.491Z,22.80
2018-07-20T04:09:36.972Z,22.80
2018-07-20T04:12:04.408Z,22.80
2018-07-20T04:14:31.870Z,22.80
2018-07-20T04:16:59.362Z,22.80
2018-07-20T04:19:26.821Z,22.80
2018-07-20T04:21:54.284Z,22.80
2018-07-20T04:24:21.739Z,22.80
2018-07-20T04:26:49.969Z,22.80
2018-07-20T04:29:17.418Z,22.80
2018-07-20T04:31:44.853Z,22.90
2018-07-20T04:36:39.665Z,22.90
2018-07-20T04:39:09.291Z,22.80
2018-07-20T04:41:36.734Z,22.90
2018-07-20T04:44:04.237Z,22.90
2018-07-20T04:46:31.701Z,22.90
2018-07-20T04:48:59.197Z,22.90
2018-07-20T04:51:26.664Z,22.90
2018-07-20T04:53:54.182Z,22.90
2018-07-20T04:56:21.639Z,23.00
2018-07-20T04:58:49.112Z,23.00
2018-07-20T05:01:16.461Z,23.00
2018-07-20T05:03:43.941Z,23.00
2018-07-20T05:06:11.384Z,23.10
2018-07-20T05:11:06.179Z,23.10
2018-07-20T05:13:33.674Z,23.10
2018-07-20T05:16:01.249Z,23.10
2018-07-20T05:18:28.774Z,23.20
2018-07-20T05:20:56.316Z,23.20
2018-07-20T05:25:51.143Z,23.20
2018-07-20T05:28:18.638Z,23.20
2018-07-20T05:30:46.183Z,23.20
2018-07-20T05:33:13.663Z,23.20
2018-07-20T05:35:41.095Z,23.30
2018-07-20T05:38:09.251Z,23.30
2018-07-20T05:40:36.745Z,23.40
2018-07-20T05:43:04.244Z,23.40
2018-07-20T05:47:59.100Z,23.40
2018-07-20T05:50:26.572Z,23.50
2018-07-20T05:52:54.184Z,23.50
2018-07-20T05:55:21.676Z,23.50
2018-07-20T05:57:49.114Z,23.60
2018-07-20T06:00:16.698Z,23.60
2018-07-20T06:02:44.099Z,23.60
2018-07-20T06:07:38.961Z,23.70
2018-07-20T06:10:06.466Z,23.80
2018-07-20T06:15:01.363Z,23.80
2018-07-20T06:17:28.927Z,23.90
2018-07-20T06:19:56.382Z,23.90
2018-07-20T06:22:23.879Z,24.00
2018-07-20T06:24:51.357Z,24.10
2018-07-20T06:27:18.917Z,24.10
2018-07-20T06:29:46.454Z,24.20
2018-07-20T06:32:13.884Z,24.20
2018-07-20T06:34:41.327Z,24.30
2018-07-20T06:37:08.895Z,24.40
2018-07-20T06:42:03.908Z,24.50
2018-07-20T06:44:31.444Z,24.50
2018-07-20T06:46:58.941Z,24.60
2018-07-20T06:49:26.429Z,24.70
2018-07-20T06:51:53.947Z,24.80
2018-07-20T06:54:21.397Z,24.80
2018-07-20T06:56:48.950Z,24.90
2018-07-20T06:59:16.419Z,25.00
2018-07-20T07:01:43.919Z,25.10
2018-07-20T07:04:11.385Z,25.20
2018-07-20T07:06:38.852Z,25.30
2018-07-20T07:09:07.257Z,25.40
2018-07-20T07:14:02.207Z,25.60
2018-07-20T07:16:29.691Z,25.70
2018-07-20T07:18:57.229Z,25.80
2018-07-20T07:21:24.753Z,26.00
2018-07-20T07:23:52.237Z,26.00
2018-07-20T07:26:19.764Z,26.10
2018-07-20T07:28:47.270Z,26.20
2018-07-20T07:31:14.789Z,26.30
2018-07-20T07:33:42.270Z,26.30
2018-07-20T07:36:09.774Z,26.50
2018-07-20T07:38:37.276Z,26.60
2018-07-20T07:41:04.775Z,26.70
2018-07-20T07:43:32.268Z,26.80
2018-07-20T07:48:27.243Z,27.00
2018-07-20T07:50:54.797Z,27.20
2018-07-20T07:53:22.312Z,27.30
2018-07-20T07:55:49.847Z,27.30
2018-07-20T08:03:12.253Z,27.80
2018-07-20T08:05:39.805Z,27.90
2018-07-20T08:08:07.261Z,28.00
2018-07-20T08:10:34.812Z,28.10
2018-07-20T08:13:02.292Z,28.10
2018-07-20T08:15:29.943Z,28.20
2018-07-20T08:17:57.486Z,28.40
2018-07-20T08:20:25.023Z,28.50
2018-07-20T08:27:47.320Z,28.90
2018-07-20T08:30:14.786Z,29.00
2018-07-20T08:32:42.270Z,29.20
2018-07-20T08:35:09.826Z,29.40
2018-07-20T08:37:37.316Z,29.50
2018-07-20T08:40:04.893Z,29.60
2018-07-20T08:42:32.331Z,29.80
2018-07-20T08:44:59.764Z,29.90
2018-07-20T08:47:27.300Z,30.00
2018-07-20T08:49:54.922Z,30.00
2018-07-20T08:52:22.416Z,30.30
2018-07-20T08:54:49.874Z,30.40
2018-07-20T08:57:17.369Z,30.50
2018-07-20T08:59:44.888Z,30.60
2018-07-20T09:02:12.478Z,30.70
2018-07-20T09:04:39.980Z,30.80
2018-07-20T09:07:07.543Z,30.80
2018-07-20T09:09:35.036Z,31.00
2018-07-20T09:12:02.489Z,31.00
2018-07-20T09:14:29.953Z,31.10
2018-07-20T09:16:57.501Z,31.20
2018-07-20T09:19:25.013Z,31.30
2018-07-20T09:21:52.428Z,31.50
2018-07-20T09:24:19.902Z,31.60
2018-07-20T09:26:47.405Z,31.90
2018-07-20T09:29:14.894Z,32.00
2018-07-20T09:31:42.359Z,32.20
2018-07-20T09:34:09.946Z,32.40
2018-07-20T09:36:37.360Z,32.50
2018-07-20T09:39:07.507Z,32.50
2018-07-20T09:41:35.026Z,32.90
2018-07-20T09:44:02.554Z,33.20
2018-07-20T09:46:30.046Z,33.50
2018-07-20T09:48:57.552Z,33.70
2018-07-20T09:51:25.040Z,34.00
2018-07-20T09:53:52.462Z,34.30
2018-07-20T09:56:19.915Z,34.50
2018-07-20T10:03:42.238Z,35.20
2018-07-20T10:06:09.738Z,35.50
2018-07-20T10:11:04.608Z,35.80
2018-07-20T10:13:32.109Z,36.00
2018-07-20T10:18:27.005Z,36.30
2018-07-20T10:20:54.437Z,36.50
2018-07-20T10:23:21.883Z,36.70
2018-07-20T10:25:49.468Z,36.90
2018-07-20T10:28:17.021Z,37.20
2018-07-20T10:30:44.713Z,37.40
2018-07-20T10:33:12.126Z,37.70
2018-07-20T10:35:39.618Z,37.90
2018-07-20T10:40:34.872Z,38.10
2018-07-20T10:43:02.443Z,38.10
2018-07-20T10:47:57.330Z,37.90
2018-07-20T10:50:25.398Z,37.80
2018-07-20T10:52:52.856Z,37.60
2018-07-20T10:55:20.451Z,37.50
2018-07-20T10:57:48.240Z,37.30
2018-07-20T11:00:15.763Z,37.10
2018-07-20T11:02:43.272Z,37.00
2018-07-20T11:07:38.127Z,36.80
2018-07-20T11:10:05.826Z,36.70
2018-07-20T11:12:33.324Z,36.60
2018-07-20T11:15:00.791Z,36.60
2018-07-20T11:17:28.299Z,36.50
2018-07-20T11:19:55.984Z,36.30
2018-07-20T11:24:50.919Z,36.10
2018-07-20T11:27:18.387Z,35.90
2018-07-20T11:29:45.834Z,35.80
2018-07-20T11:32:13.334Z,35.80
2018-07-20T11:34:40.807Z,35.60
2018-07-20T11:37:08.292Z,35.50
2018-07-20T11:39:35.798Z,35.40
2018-07-20T11:42:03.353Z,35.30
2018-07-20T11:44:30.862Z,35.30
2018-07-20T11:46:58.337Z,35.20
2018-07-20T11:49:25.817Z,35.20
2018-07-20T11:51:53.297Z,35.10
2018-07-20T11:54:20.750Z,35.00
2018-07-20T11:56:55.034Z,35.00
2018-07-20T11:59:22.509Z,35.00
2018-07-20T12:01:49.951Z,35.00
2018-07-20T12:04:17.410Z,35.10
2018-07-20T12:06:44.927Z,35.10
2018-07-20T12:09:12.781Z,35.10
2018-07-20T12:14:08.206Z,35.20
2018-07-20T12:16:35.767Z,35.20
2018-07-20T12:19:03.382Z,35.20
2018-07-20T12:21:30.808Z,35.40
2018-07-20T12:23:58.342Z,35.10
2018-07-20T12:28:53.315Z,35.00
2018-07-20T12:31:20.779Z,35.00
2018-07-20T12:33:48.297Z,35.00
2018-07-20T12:36:15.795Z,34.90
2018-07-20T12:38:43.272Z,35.00
2018-07-20T12:41:11.125Z,35.00
2018-07-20T12:43:38.525Z,35.00
2018-07-20T12:46:06.006Z,35.00
2018-07-20T12:48:33.573Z,35.10
2018-07-20T12:51:01.118Z,35.30
2018-07-20T12:53:28.625Z,35.20
2018-07-20T12:55:56.181Z,35.20
2018-07-20T12:58:23.800Z,35.20
2018-07-20T13:00:51.241Z,35.20
2018-07-20T13:03:18.700Z,35.20
2018-07-20T13:05:46.325Z,35.10
2018-07-20T13:08:13.827Z,35.10
2018-07-20T13:10:41.337Z,35.10
2018-07-20T13:15:36.336Z,35.10
2018-07-20T13:18:03.956Z,35.10
2018-07-20T13:20:31.435Z,35.10
2018-07-20T13:22:58.915Z,35.10
2018-07-20T13:25:26.395Z,35.10
2018-07-20T13:30:21.455Z,35.10
2018-07-20T13:32:48.949Z,35.10
2018-07-20T13:35:16.435Z,35.00
2018-07-20T13:37:43.974Z,35.10
2018-07-20T13:42:38.882Z,35.00
2018-07-20T13:47:33.830Z,34.90
2018-07-20T13:50:01.359Z,34.90
2018-07-20T13:52:28.855Z,34.80
2018-07-20T13:54:56.340Z,34.80
2018-07-20T13:57:23.814Z,34.70
2018-07-20T13:59:51.313Z,34.60
2018-07-20T14:02:18.783Z,34.50
2018-07-20T14:04:46.262Z,34.50
2018-07-20T14:07:13.745Z,34.40
2018-07-20T14:09:41.190Z,34.30
2018-07-20T14:12:08.712Z,34.20
2018-07-20T14:14:36.180Z,34.10
2018-07-20T14:17:03.731Z,34.10
2018-07-20T14:19:31.200Z,34.00
2018-07-20T14:21:58.724Z,33.90
2018-07-20T14:24:26.203Z,33.90
2018-07-20T14:26:53.755Z,33.80
2018-07-20T14:29:21.322Z,33.70
2018-07-20T14:31:48.942Z,33.60
2018-07-20T14:34:16.320Z,33.60
2018-07-20T14:36:43.794Z,33.60
2018-07-20T14:39:13.026Z,33.50
2018-07-20T14:41:40.812Z,33.50
2018-07-20T14:44:08.310Z,33.50
2018-07-20T14:46:35.912Z,33.50
2018-07-20T14:49:03.532Z,33.40
2018-07-20T14:51:31.078Z,33.40
2018-07-20T14:53:58.549Z,33.40
2018-07-20T14:56:26.206Z,33.30
2018-07-20T14:58:53.736Z,33.30
2018-07-20T15:01:21.264Z,33.10
2018-07-20T15:06:16.140Z,33.10
2018-07-20T15:08:43.606Z,33.00
2018-07-20T15:11:11.076Z,32.90
2018-07-20T15:13:38.519Z,32.90
2018-07-20T15:16:05.993Z,32.80
2018-07-20T15:18:33.457Z,32.80
2018-07-20T15:25:56.092Z,32.70
2018-07-20T15:28:23.563Z,32.70
2018-07-20T15:30:51.017Z,32.70
2018-07-20T15:33:18.507Z,32.80
2018-07-20T15:35:46.082Z,32.80
2018-07-20T15:38:13.647Z,32.70
2018-07-20T15:40:41.065Z,32.90
2018-07-20T15:43:08.585Z,32.90
2018-07-20T15:45:36.076Z,32.90
2018-07-20T15:48:03.622Z,32.90
2018-07-20T15:50:31.284Z,32.90
2018-07-20T15:53:36.251Z,33.00
2018-07-20T15:55:26.440Z,33.00
2018-07-20T15:57:53.904Z,33.00
2018-07-20T16:00:21.418Z,33.00
2018-07-20T16:02:48.915Z,33.00
2018-07-20T16:05:16.398Z,32.90
2018-07-20T16:07:43.893Z,32.90
2018-07-20T16:10:11.429Z,32.90
2018-07-20T16:12:38.930Z,32.90
2018-07-20T16:17:33.792Z,32.90
2018-07-20T16:20:01.263Z,32.80
2018-07-20T16:22:28.749Z,32.80
2018-07-20T16:27:23.687Z,32.70
2018-07-20T16:29:51.166Z,32.70
2018-07-20T16:32:18.611Z,32.70
2018-07-20T16:34:46.090Z,32.70
2018-07-20T16:37:13.593Z,32.70
2018-07-20T16:39:41.054Z,32.80
2018-07-20T16:42:08.742Z,32.80
2018-07-20T16:44:36.178Z,32.70
2018-07-20T16:47:03.650Z,32.80
2018-07-20T16:49:31.169Z,32.80
2018-07-20T16:51:58.659Z,32.70
2018-07-20T16:54:26.098Z,32.70
2018-07-20T16:59:20.938Z,32.60
2018-07-20T17:01:48.423Z,32.60
2018-07-20T17:04:15.926Z,32.60
2018-07-20T17:06:43.384Z,32.50
2018-07-20T17:11:39.334Z,32.50
2018-07-20T17:14:06.902Z,32.50
2018-07-20T17:16:34.382Z,32.40
2018-07-20T17:19:02.069Z,32.40
2018-07-20T17:21:29.672Z,32.40
2018-07-20T17:23:57.339Z,32.30
2018-07-20T17:26:24.827Z,32.30
2018-07-20T17:28:52.352Z,32.30
2018-07-20T17:31:19.863Z,32.00
2018-07-20T17:33:47.435Z,32.30
2018-07-20T17:41:09.759Z,32.20
2018-07-20T17:43:37.299Z,32.20
2018-07-20T17:46:05.106Z,32.10
2018-07-20T17:48:32.654Z,32.10
2018-07-20T17:51:00.129Z,32.00
2018-07-20T17:53:27.634Z,32.00
2018-07-20T17:55:55.170Z,30.30
2018-07-20T18:03:17.630Z,31.90
2018-07-20T18:05:45.336Z,31.90
2018-07-20T18:08:12.792Z,31.80
2018-07-20T18:10:40.340Z,31.80
2018-07-20T18:13:07.854Z,31.70
2018-07-20T18:15:35.377Z,31.70
2018-07-20T18:18:02.982Z,31.60
2018-07-20T18:20:30.468Z,31.60
2018-07-20T18:22:57.950Z,31.60
2018-07-20T18:25:25.500Z,31.60
2018-07-20T18:27:53.240Z,32.50
2018-07-20T18:30:20.699Z,31.50
2018-07-20T18:32:48.188Z,31.50
2018-07-20T18:35:15.713Z,31.40
2018-07-20T18:37:43.244Z,31.40
2018-07-20T18:45:06.947Z,31.20
2018-07-20T18:50:01.996Z,31.10
2018-07-20T18:52:29.533Z,30.90
2018-07-20T18:54:57.030Z,31.00
2018-07-20T18:57:24.563Z,30.90
2018-07-20T18:59:52.090Z,30.80
2018-07-20T19:02:19.601Z,30.70
2018-07-20T19:04:47.083Z,29.50
2018-07-20T19:07:14.625Z,30.70
2018-07-20T19:09:42.105Z,30.70
2018-07-20T19:12:09.763Z,30.60
2018-07-20T19:14:37.338Z,30.60
2018-07-20T19:19:44.881Z,30.50
2018-07-20T19:22:12.456Z,30.30
2018-07-20T19:24:40.012Z,30.40
2018-07-20T19:27:07.551Z,30.40
2018-07-20T19:29:35.087Z,30.30
2018-07-20T19:32:02.631Z,30.30
2018-07-20T19:34:30.148Z,30.20
2018-07-20T19:36:57.630Z,30.20
2018-07-20T19:39:25.185Z,30.20
2018-07-20T19:41:52.710Z,30.20
2018-07-20T19:44:20.293Z,30.00
2018-07-20T19:46:47.832Z,30.10
2018-07-20T19:49:15.418Z,30.10
2018-07-20T19:51:43.054Z,30.10
2018-07-20T19:54:10.592Z,30.00
2018-07-20T19:56:38.114Z,30.00
2018-07-20T19:59:05.596Z,29.90
2018-07-20T20:01:33.219Z,29.90
2018-07-20T20:04:00.797Z,29.90
2018-07-20T20:08:55.751Z,29.90
2018-07-20T20:11:23.294Z,29.80
2018-07-20T20:13:50.804Z,29.80
2018-07-20T20:16:18.443Z,29.70
2018-07-20T20:18:45.919Z,29.60
2018-07-20T20:21:13.486Z,29.60
2018-07-20T20:23:40.999Z,29.60
2018-07-20T20:26:08.523Z,29.50
2018-07-20T20:28:36.202Z,29.50
2018-07-20T20:31:03.865Z,29.40
2018-07-20T20:33:31.444Z,29.30
2018-07-20T20:35:59.138Z,29.30
2018-07-20T20:38:26.659Z,29.20
2018-07-20T20:40:54.246Z,29.10
2018-07-20T20:43:21.779Z,29.00
2018-07-20T20:45:49.340Z,29.00
2018-07-20T20:48:16.919Z,28.90
2018-07-20T20:50:44.483Z,28.80
2018-07-20T20:53:11.947Z,28.70
2018-07-20T20:55:39.520Z,28.50
2018-07-20T21:00:34.585Z,28.50
2018-07-20T21:03:02.085Z,28.40
2018-07-20T21:05:29.602Z,28.40
2018-07-20T21:07:57.106Z,28.30
2018-07-20T21:10:24.644Z,28.30
2018-07-20T21:12:52.193Z,28.30
2018-07-20T21:15:19.709Z,28.20
2018-07-20T21:17:47.217Z,28.20
2018-07-20T21:20:14.880Z,28.10
2018-07-20T21:22:42.415Z,28.10
2018-07-20T21:25:09.979Z,28.00
2018-07-20T21:27:37.434Z,28.00
2018-07-20T21:30:05.221Z,27.90
2018-07-20T21:32:32.801Z,27.90
2018-07-20T21:37:27.913Z,27.80
2018-07-20T21:42:22.865Z,27.80
2018-07-20T21:44:50.597Z,27.80
2018-07-20T21:49:45.579Z,27.70
2018-07-20T21:52:13.079Z,27.70
2018-07-20T21:54:41.481Z,27.70
2018-07-20T21:57:09.089Z,27.70
2018-07-20T21:59:36.702Z,27.60
2018-07-20T22:02:04.351Z,27.60
2018-07-20T22:04:31.841Z,27.60
2018-07-20T22:06:59.413Z,27.40
2018-07-20T22:09:26.875Z,27.40
2018-07-20T22:11:54.418Z,27.30
2018-07-20T22:14:21.933Z,27.20
2018-07-20T22:16:50.284Z,27.10
2018-07-20T22:19:17.877Z,27.00
2018-07-20T22:21:45.398Z,26.90
2018-07-20T22:24:12.884Z,26.80
2018-07-20T22:26:40.634Z,26.70
2018-07-20T22:29:08.137Z,26.60
2018-07-20T22:31:35.694Z,26.60
2018-07-20T22:34:03.327Z,26.50
2018-07-20T22:36:30.856Z,26.40
2018-07-20T22:38:58.433Z,26.40
2018-07-20T22:43:53.518Z,26.30
2018-07-20T22:46:21.065Z,26.20
2018-07-20T22:48:48.576Z,26.20
2018-07-20T22:51:16.080Z,26.10
2018-07-20T22:53:43.627Z,26.00
2018-07-20T22:56:11.230Z,26.00
2018-07-20T23:01:06.200Z,25.90
2018-07-20T23:03:33.678Z,25.90
2018-07-20T23:06:01.164Z,25.90
2018-07-20T23:08:28.654Z,25.80
2018-07-20T23:10:56.196Z,25.80
2018-07-20T23:13:23.708Z,25.80
2018-07-20T23:15:51.222Z,25.80
2018-07-20T23:18:18.778Z,25.70
2018-07-20T23:20:46.343Z,25.70
2018-07-20T23:23:13.772Z,25.70
2018-07-20T23:28:08.746Z,25.70
2018-07-20T23:30:36.267Z,25.70
2018-07-20T23:33:03.919Z,25.70
2018-07-20T23:35:31.395Z,25.70
2018-07-20T23:37:58.946Z,25.70
2018-07-20T23:40:26.415Z,25.70
2018-07-20T23:42:53.906Z,25.70
2018-07-20T23:45:21.472Z,25.70
2018-07-20T23:47:48.927Z,25.70
2018-07-20T23:50:16.442Z,25.60
2018-07-20T23:52:43.989Z,25.60
2018-07-20T23:55:11.566Z,25.60
2018-07-20T23:57:39.148Z,25.60
